Weather at Cable Head Airpark

Public forecast

Using degrees Celsius for public forecast. Weather courtesy of forecast.io.

Closest aviation weather report (METAR) to Cable Head Airpark

Closest report is Charlottetown Airport, 23.7 nm (44.0 km) WSW. Retrieved 2021/01/16 23:00 UTC (50 minutes ago):

CYYG 162300Z 10010KT 15SM OVC160 M01/M03 A2985 RMK AS8 PRESFR SLP111

Closest aviation forecast (TAF) to Cable Head Airpark

Closest forecast is Charlottetown Airport, 23.7 nm (44.0 km) WSW. Retrieved 2021/01/16 18:42 UTC (5 hours ago):

TAF CYYG 161739Z 1618/1706 13008KT P6SM OVC015 TEMPO 1618/1704 SCT015 BKN220 BECMG 1622/1624 13015G25KT FM170400 11020G35KT 3SM -RAPL BR SCT008 OVC015 RMK NXT FCST BY 170000Z